South Barre, Massachusetts
Current Conditions -  °F | °C
As of 8:54 AM on Tuesday 21 Oct 2014 (Local Time) from KORH Reporting Station
Overcast Overcast  
Wind Chill: 42°   Ceiling: 9500
Heat Index: 45°   Visibility: 10mi
Dew Point: 42°   Wind: 6mph
Humidity: 90%   Direction: 40°NE
Pressure: 29.97"   Gusts: NA
Location:  42.39°N, 72.1°W
Report Text: KORH 211254Z 04005KT 10SM OVC095 07/06 A2997 RMK AO2 SLP156 T00720056
Loading
Personal Weather Stations






























Interactive Weather Map
Tropical Storm Tracking
New forecast layout! Learn more

10-Day Weather Forecast

Advertisements
Track Severe Weather on mobile